<?xml version="1.0" encoding="UTF-8" standalone="no" ?>
<gpx xmlns="http://www.topografix.com/GPX/1/1" xmlns:xsi="http://www.w3.org/2001/XMLSchema-instance" xsi:schemaLocation="http://www.topografix.com/GPX/1/1 http://www.topografix.com/GPX/1/1/gpx.xsd" version="1.1" creator="VisuGPX - https://www.visugpx.com">
  <metadata>
    <name>ILE DE RE - VTT - Un aller retour de Ste Marie de Ré à La Flotte</name>
    <desc><![CDATA[Sortie cool]]></desc>
  </metadata>
  <wpt lat="46.17257" lon="-1.35693">
    <ele>2.769531</ele>
    <name><![CDATA[001]]></name>
    <desc><![CDATA[18-AOU-14 10:45:34]]></desc>
    <cmt><![CDATA[18-AOU-14 10:45:34]]></cmt>
  </wpt>
  <wpt lat="46.21604" lon="-1.43872">
    <ele>-22.464966</ele>
    <name><![CDATA[002]]></name>
    <desc><![CDATA[20-AOU-14 17:20:46]]></desc>
    <cmt><![CDATA[20-AOU-14 17:20:46]]></cmt>
  </wpt>
  <trk>
    <name><![CDATA[ACTIVE LOG 005]]></name>
    <trkseg>
      <trkpt lat="46.17249" lon="-1.35696">
        <ele>23.689575</ele>
        <time>2014-08-22T07:51:54Z</time>
      </trkpt>
      <trkpt lat="46.17248" lon="-1.35696">
        <ele>23.689575</ele>
        <time>2014-08-22T07:51:55Z</time>
      </trkpt>
      <trkpt lat="46.17249" lon="-1.35696">
        <ele>24.170288</ele>
        <time>2014-08-22T07:52:20Z</time>
      </trkpt>
      <trkpt lat="46.17245" lon="-1.35697">
        <ele>23.689575</ele>
        <time>2014-08-22T07:52:39Z</time>
      </trkpt>
      <trkpt lat="46.17245" lon="-1.35696">
        <ele>23.208984</ele>
        <time>2014-08-22T07:53:01Z</time>
      </trkpt>
      <trkpt lat="46.1725" lon="-1.35698">
        <ele>23.208984</ele>
        <time>2014-08-22T07:53:13Z</time>
      </trkpt>
      <trkpt lat="46.17257" lon="-1.35706">
        <ele>23.208984</ele>
        <time>2014-08-22T07:53:23Z</time>
      </trkpt>
      <trkpt lat="46.17268" lon="-1.35717">
        <ele>23.208984</ele>
        <time>2014-08-22T07:53:40Z</time>
      </trkpt>
      <trkpt lat="46.17268" lon="-1.3572">
        <ele>23.689575</ele>
        <time>2014-08-22T07:53:45Z</time>
      </trkpt>
      <trkpt lat="46.17268" lon="-1.35735">
        <ele>24.170288</ele>
        <time>2014-08-22T07:53:53Z</time>
      </trkpt>
      <trkpt lat="46.17253" lon="-1.35764">
        <ele>23.208984</ele>
        <time>2014-08-22T07:54:09Z</time>
      </trkpt>
      <trkpt lat="46.17233" lon="-1.35781">
        <ele>23.208984</ele>
        <time>2014-08-22T07:54:26Z</time>
      </trkpt>
      <trkpt lat="46.17221" lon="-1.35793">
        <ele>22.728271</ele>
        <time>2014-08-22T07:54:35Z</time>
      </trkpt>
      <trkpt lat="46.17219" lon="-1.358">
        <ele>22.728271</ele>
        <time>2014-08-22T07:54:39Z</time>
      </trkpt>
      <trkpt lat="46.17212" lon="-1.35817">
        <ele>22.728271</ele>
        <time>2014-08-22T07:54:48Z</time>
      </trkpt>
      <trkpt lat="46.17207" lon="-1.35833">
        <ele>22.728271</ele>
        <time>2014-08-22T07:54:57Z</time>
      </trkpt>
      <trkpt lat="46.17195" lon="-1.35836">
        <ele>22.247559</ele>
        <time>2014-08-22T07:55:05Z</time>
      </trkpt>
      <trkpt lat="46.17187" lon="-1.35854">
        <ele>23.208984</ele>
        <time>2014-08-22T07:55:14Z</time>
      </trkpt>
      <trkpt lat="46.17184" lon="-1.3586">
        <ele>21.766968</ele>
        <time>2014-08-22T07:55:18Z</time>
      </trkpt>
      <trkpt lat="46.17179" lon="-1.3587">
        <ele>22.728271</ele>
        <time>2014-08-22T07:55:24Z</time>
      </trkpt>
      <trkpt lat="46.17164" lon="-1.35895">
        <ele>22.247559</ele>
        <time>2014-08-22T07:55:38Z</time>
      </trkpt>
      <trkpt lat="46.17146" lon="-1.35922">
        <ele>22.247559</ele>
        <time>2014-08-22T07:55:50Z</time>
      </trkpt>
      <trkpt lat="46.17122" lon="-1.35937">
        <ele>22.247559</ele>
        <time>2014-08-22T07:56:02Z</time>
      </trkpt>
      <trkpt lat="46.171" lon="-1.35946">
        <ele>22.247559</ele>
        <time>2014-08-22T07:56:13Z</time>
      </trkpt>
      <trkpt lat="46.17074" lon="-1.35964">
        <ele>22.247559</ele>
        <time>2014-08-22T07:56:26Z</time>
      </trkpt>
      <trkpt lat="46.1705" lon="-1.35979">
        <ele>22.247559</ele>
        <time>2014-08-22T07:56:37Z</time>
      </trkpt>
      <trkpt lat="46.17045" lon="-1.35983">
        <ele>21.286377</ele>
        <time>2014-08-22T07:56:39Z</time>
      </trkpt>
      <trkpt lat="46.1703" lon="-1.36031">
        <ele>21.286377</ele>
        <time>2014-08-22T07:56:52Z</time>
      </trkpt>
      <trkpt lat="46.1702" lon="-1.36074">
        <ele>20.324951</ele>
        <time>2014-08-22T07:57:04Z</time>
      </trkpt>
      <trkpt lat="46.17018" lon="-1.36123">
        <ele>19.84436</ele>
        <time>2014-08-22T07:57:20Z</time>
      </trkpt>
      <trkpt lat="46.17018" lon="-1.36177">
        <ele>19.84436</ele>
        <time>2014-08-22T07:57:37Z</time>
      </trkpt>
      <trkpt lat="46.17014" lon="-1.36227">
        <ele>20.324951</ele>
        <time>2014-08-22T07:57:54Z</time>
      </trkpt>
      <trkpt lat="46.17023" lon="-1.36267">
        <ele>19.84436</ele>
        <time>2014-08-22T07:58:07Z</time>
      </trkpt>
      <trkpt lat="46.17067" lon="-1.36295">
        <ele>18.402344</ele>
        <time>2014-08-22T07:58:24Z</time>
      </trkpt>
      <trkpt lat="46.17105" lon="-1.36323">
        <ele>17.921753</ele>
        <time>2014-08-22T07:58:37Z</time>
      </trkpt>
      <trkpt lat="46.17122" lon="-1.36341">
        <ele>18.402344</ele>
        <time>2014-08-22T07:58:43Z</time>
      </trkpt>
      <trkpt lat="46.17189" lon="-1.36416">
        <ele>15.999023</ele>
        <time>2014-08-22T07:59:01Z</time>
      </trkpt>
      <trkpt lat="46.17261" lon="-1.36486">
        <ele>16.479736</ele>
        <time>2014-08-22T07:59:19Z</time>
      </trkpt>
      <trkpt lat="46.17295" lon="-1.36527">
        <ele>16.960449</ele>
        <time>2014-08-22T07:59:31Z</time>
      </trkpt>
      <trkpt lat="46.17335" lon="-1.36587">
        <ele>17.921753</ele>
        <time>2014-08-22T07:59:48Z</time>
      </trkpt>
      <trkpt lat="46.17361" lon="-1.36627">
        <ele>18.883057</ele>
        <time>2014-08-22T07:59:59Z</time>
      </trkpt>
      <trkpt lat="46.1739" lon="-1.36676">
        <ele>18.883057</ele>
        <time>2014-08-22T08:00:12Z</time>
      </trkpt>
      <trkpt lat="46.1742" lon="-1.36726">
        <ele>18.883057</ele>
        <time>2014-08-22T08:00:26Z</time>
      </trkpt>
      <trkpt lat="46.17466" lon="-1.36769">
        <ele>19.36377</ele>
        <time>2014-08-22T08:00:42Z</time>
      </trkpt>
      <trkpt lat="46.17505" lon="-1.36799">
        <ele>19.36377</ele>
        <time>2014-08-22T08:00:54Z</time>
      </trkpt>
      <trkpt lat="46.1754" lon="-1.36831">
        <ele>18.883057</ele>
        <time>2014-08-22T08:01:07Z</time>
      </trkpt>
      <trkpt lat="46.1759" lon="-1.36884">
        <ele>18.883057</ele>
        <time>2014-08-22T08:01:23Z</time>
      </trkpt>
      <trkpt lat="46.17633" lon="-1.3697">
        <ele>17.921753</ele>
        <time>2014-08-22T08:01:40Z</time>
      </trkpt>
      <trkpt lat="46.17643" lon="-1.36993">
        <ele>17.441162</ele>
        <time>2014-08-22T08:01:45Z</time>
      </trkpt>
      <trkpt lat="46.17666" lon="-1.37018">
        <ele>17.921753</ele>
        <time>2014-08-22T08:01:52Z</time>
      </trkpt>
      <trkpt lat="46.17681" lon="-1.37023">
        <ele>17.441162</ele>
        <time>2014-08-22T08:01:56Z</time>
      </trkpt>
      <trkpt lat="46.17735" lon="-1.37048">
        <ele>17.441162</ele>
        <time>2014-08-22T08:02:09Z</time>
      </trkpt>
      <trkpt lat="46.17743" lon="-1.37055">
        <ele>16.960449</ele>
        <time>2014-08-22T08:02:11Z</time>
      </trkpt>
      <trkpt lat="46.17784" lon="-1.37103">
        <ele>14.076416</ele>
        <time>2014-08-22T08:02:21Z</time>
      </trkpt>
      <trkpt lat="46.17835" lon="-1.37166">
        <ele>15.999023</ele>
        <time>2014-08-22T08:02:35Z</time>
      </trkpt>
      <trkpt lat="46.17858" lon="-1.37216">
        <ele>16.479736</ele>
        <time>2014-08-22T08:02:47Z</time>
      </trkpt>
      <trkpt lat="46.17859" lon="-1.37285">
        <ele>16.960449</ele>
        <time>2014-08-22T08:03:00Z</time>
      </trkpt>
      <trkpt lat="46.17861" lon="-1.37339">
        <ele>16.479736</ele>
        <time>2014-08-22T08:03:11Z</time>
      </trkpt>
      <trkpt lat="46.17884" lon="-1.37381">
        <ele>16.479736</ele>
        <time>2014-08-22T08:03:21Z</time>
      </trkpt>
      <trkpt lat="46.17886" lon="-1.37384">
        <ele>16.479736</ele>
        <time>2014-08-22T08:03:22Z</time>
      </trkpt>
      <trkpt lat="46.17919" lon="-1.37385">
        <ele>15.999023</ele>
        <time>2014-08-22T08:03:33Z</time>
      </trkpt>
      <trkpt lat="46.17927" lon="-1.37384">
        <ele>16.479736</ele>
        <time>2014-08-22T08:03:36Z</time>
      </trkpt>
      <trkpt lat="46.17941" lon="-1.37412">
        <ele>16.479736</ele>
        <time>2014-08-22T08:03:44Z</time>
      </trkpt>
      <trkpt lat="46.17957" lon="-1.37396">
        <ele>15.999023</ele>
        <time>2014-08-22T08:03:52Z</time>
      </trkpt>
      <trkpt lat="46.17959" lon="-1.37394">
        <ele>16.479736</ele>
        <time>2014-08-22T08:03:53Z</time>
      </trkpt>
      <trkpt lat="46.17975" lon="-1.37367">
        <ele>16.479736</ele>
        <time>2014-08-22T08:04:07Z</time>
      </trkpt>
      <trkpt lat="46.18003" lon="-1.37344">
        <ele>15.518433</ele>
        <time>2014-08-22T08:04:20Z</time>
      </trkpt>
      <trkpt lat="46.18057" lon="-1.37324">
        <ele>16.479736</ele>
        <time>2014-08-22T08:04:35Z</time>
      </trkpt>
      <trkpt lat="46.18069" lon="-1.37325">
        <ele>16.479736</ele>
        <time>2014-08-22T08:04:38Z</time>
      </trkpt>
      <trkpt lat="46.18188" lon="-1.37322">
        <ele>15.999023</ele>
        <time>2014-08-22T08:05:05Z</time>
      </trkpt>
      <trkpt lat="46.18255" lon="-1.37299">
        <ele>16.479736</ele>
        <time>2014-08-22T08:05:22Z</time>
      </trkpt>
      <trkpt lat="46.18265" lon="-1.37295">
        <ele>16.960449</ele>
        <time>2014-08-22T08:05:25Z</time>
      </trkpt>
      <trkpt lat="46.18277" lon="-1.37289">
        <ele>16.960449</ele>
        <time>2014-08-22T08:05:28Z</time>
      </trkpt>
      <trkpt lat="46.18366" lon="-1.37227">
        <ele>18.402344</ele>
        <time>2014-08-22T08:05:50Z</time>
      </trkpt>
      <trkpt lat="46.18455" lon="-1.37169">
        <ele>19.36377</ele>
        <time>2014-08-22T08:06:11Z</time>
      </trkpt>
      <trkpt lat="46.18532" lon="-1.37144">
        <ele>20.805664</ele>
        <time>2014-08-22T08:06:28Z</time>
      </trkpt>
      <trkpt lat="46.18627" lon="-1.3712">
        <ele>19.36377</ele>
        <time>2014-08-22T08:06:49Z</time>
      </trkpt>
      <trkpt lat="46.18677" lon="-1.37096">
        <ele>18.883057</ele>
        <time>2014-08-22T08:07:00Z</time>
      </trkpt>
      <trkpt lat="46.18744" lon="-1.37032">
        <ele>19.36377</ele>
        <time>2014-08-22T08:07:16Z</time>
      </trkpt>
      <trkpt lat="46.18781" lon="-1.36979">
        <ele>17.921753</ele>
        <time>2014-08-22T08:07:27Z</time>
      </trkpt>
      <trkpt lat="46.18788" lon="-1.36972">
        <ele>16.960449</ele>
        <time>2014-08-22T08:07:29Z</time>
      </trkpt>
      <trkpt lat="46.18805" lon="-1.36936">
        <ele>17.441162</ele>
        <time>2014-08-22T08:07:36Z</time>
      </trkpt>
      <trkpt lat="46.18864" lon="-1.36834">
        <ele>18.402344</ele>
        <time>2014-08-22T08:07:57Z</time>
      </trkpt>
      <trkpt lat="46.18932" lon="-1.36783">
        <ele>19.36377</ele>
        <time>2014-08-22T08:08:15Z</time>
      </trkpt>
      <trkpt lat="46.19003" lon="-1.36776">
        <ele>19.84436</ele>
        <time>2014-08-22T08:08:32Z</time>
      </trkpt>
      <trkpt lat="46.19088" lon="-1.36787">
        <ele>20.805664</ele>
        <time>2014-08-22T08:08:51Z</time>
      </trkpt>
      <trkpt lat="46.19163" lon="-1.36815">
        <ele>20.324951</ele>
        <time>2014-08-22T08:09:09Z</time>
      </trkpt>
      <trkpt lat="46.19284" lon="-1.36884">
        <ele>20.324951</ele>
        <time>2014-08-22T08:09:37Z</time>
      </trkpt>
      <trkpt lat="46.19355" lon="-1.36944">
        <ele>19.84436</ele>
        <time>2014-08-22T08:09:56Z</time>
      </trkpt>
      <trkpt lat="46.19361" lon="-1.36948">
        <ele>20.324951</ele>
        <time>2014-08-22T08:10:02Z</time>
      </trkpt>
      <trkpt lat="46.19373" lon="-1.36915">
        <ele>21.286377</ele>
        <time>2014-08-22T08:10:16Z</time>
      </trkpt>
      <trkpt lat="46.19375" lon="-1.36851">
        <ele>20.805664</ele>
        <time>2014-08-22T08:10:31Z</time>
      </trkpt>
      <trkpt lat="46.19384" lon="-1.36725">
        <ele>20.324951</ele>
        <time>2014-08-22T08:10:53Z</time>
      </trkpt>
      <trkpt lat="46.19386" lon="-1.36599">
        <ele>20.324951</ele>
        <time>2014-08-22T08:11:14Z</time>
      </trkpt>
      <trkpt lat="46.1939" lon="-1.36467">
        <ele>21.286377</ele>
        <time>2014-08-22T08:11:36Z</time>
      </trkpt>
      <trkpt lat="46.19412" lon="-1.36307">
        <ele>22.247559</ele>
        <time>2014-08-22T08:12:01Z</time>
      </trkpt>
      <trkpt lat="46.19415" lon="-1.36155">
        <ele>22.728271</ele>
        <time>2014-08-22T08:12:24Z</time>
      </trkpt>
      <trkpt lat="46.19415" lon="-1.3602">
        <ele>23.208984</ele>
        <time>2014-08-22T08:12:46Z</time>
      </trkpt>
      <trkpt lat="46.19413" lon="-1.35944">
        <ele>22.728271</ele>
        <time>2014-08-22T08:13:03Z</time>
      </trkpt>
      <trkpt lat="46.19413" lon="-1.3586">
        <ele>23.208984</ele>
        <time>2014-08-22T08:13:17Z</time>
      </trkpt>
      <trkpt lat="46.19413" lon="-1.35719">
        <ele>23.208984</ele>
        <time>2014-08-22T08:13:39Z</time>
      </trkpt>
      <trkpt lat="46.19403" lon="-1.3563">
        <ele>23.208984</ele>
        <time>2014-08-22T08:13:56Z</time>
      </trkpt>
      <trkpt lat="46.19396" lon="-1.35591">
        <ele>23.689575</ele>
        <time>2014-08-22T08:14:07Z</time>
      </trkpt>
      <trkpt lat="46.19396" lon="-1.35588">
        <ele>23.208984</ele>
        <time>2014-08-22T08:14:08Z</time>
      </trkpt>
      <trkpt lat="46.19398" lon="-1.35533">
        <ele>23.689575</ele>
        <time>2014-08-22T08:14:21Z</time>
      </trkpt>
      <trkpt lat="46.19391" lon="-1.3545">
        <ele>23.689575</ele>
        <time>2014-08-22T08:14:38Z</time>
      </trkpt>
      <trkpt lat="46.19384" lon="-1.35363">
        <ele>23.208984</ele>
        <time>2014-08-22T08:14:54Z</time>
      </trkpt>
      <trkpt lat="46.19381" lon="-1.35256">
        <ele>22.247559</ele>
        <time>2014-08-22T08:15:12Z</time>
      </trkpt>
      <trkpt lat="46.19381" lon="-1.35196">
        <ele>20.805664</ele>
        <time>2014-08-22T08:15:26Z</time>
      </trkpt>
      <trkpt lat="46.19381" lon="-1.35164">
        <ele>20.324951</ele>
        <time>2014-08-22T08:15:37Z</time>
      </trkpt>
      <trkpt lat="46.19384" lon="-1.35096">
        <ele>20.324951</ele>
        <time>2014-08-22T08:15:52Z</time>
      </trkpt>
      <trkpt lat="46.19387" lon="-1.35074">
        <ele>20.324951</ele>
        <time>2014-08-22T08:15:56Z</time>
      </trkpt>
      <trkpt lat="46.19386" lon="-1.35052">
        <ele>21.286377</ele>
        <time>2014-08-22T08:16:00Z</time>
      </trkpt>
      <trkpt lat="46.19389" lon="-1.34977">
        <ele>19.84436</ele>
        <time>2014-08-22T08:16:16Z</time>
      </trkpt>
      <trkpt lat="46.19393" lon="-1.34887">
        <ele>19.84436</ele>
        <time>2014-08-22T08:16:35Z</time>
      </trkpt>
      <trkpt lat="46.19372" lon="-1.34819">
        <ele>19.84436</ele>
        <time>2014-08-22T08:16:49Z</time>
      </trkpt>
      <trkpt lat="46.19361" lon="-1.34749">
        <ele>19.36377</ele>
        <time>2014-08-22T08:17:03Z</time>
      </trkpt>
      <trkpt lat="46.19373" lon="-1.34722">
        <ele>19.36377</ele>
        <time>2014-08-22T08:17:11Z</time>
      </trkpt>
      <trkpt lat="46.19387" lon="-1.34727">
        <ele>19.36377</ele>
        <time>2014-08-22T08:17:18Z</time>
      </trkpt>
      <trkpt lat="46.19418" lon="-1.3473">
        <ele>19.36377</ele>
        <time>2014-08-22T08:17:29Z</time>
      </trkpt>
      <trkpt lat="46.19425" lon="-1.34729">
        <ele>18.883057</ele>
        <time>2014-08-22T08:17:32Z</time>
      </trkpt>
      <trkpt lat="46.19432" lon="-1.34715">
        <ele>19.36377</ele>
        <time>2014-08-22T08:17:37Z</time>
      </trkpt>
      <trkpt lat="46.19437" lon="-1.34706">
        <ele>19.36377</ele>
        <time>2014-08-22T08:17:40Z</time>
      </trkpt>
      <trkpt lat="46.19425" lon="-1.34646">
        <ele>19.36377</ele>
        <time>2014-08-22T08:17:53Z</time>
      </trkpt>
      <trkpt lat="46.19395" lon="-1.34521">
        <ele>19.36377</ele>
        <time>2014-08-22T08:18:15Z</time>
      </trkpt>
      <trkpt lat="46.19367" lon="-1.34413">
        <ele>18.883057</ele>
        <time>2014-08-22T08:18:33Z</time>
      </trkpt>
      <trkpt lat="46.19331" lon="-1.34295">
        <ele>17.921753</ele>
        <time>2014-08-22T08:18:52Z</time>
      </trkpt>
      <trkpt lat="46.193" lon="-1.34155">
        <ele>17.441162</ele>
        <time>2014-08-22T08:19:14Z</time>
      </trkpt>
      <trkpt lat="46.19271" lon="-1.34032">
        <ele>14.557007</ele>
        <time>2014-08-22T08:19:31Z</time>
      </trkpt>
      <trkpt lat="46.19236" lon="-1.33883">
        <ele>11.673218</ele>
        <time>2014-08-22T08:19:51Z</time>
      </trkpt>
      <trkpt lat="46.19213" lon="-1.33791">
        <ele>10.231201</ele>
        <time>2014-08-22T08:20:08Z</time>
      </trkpt>
      <trkpt lat="46.192" lon="-1.33731">
        <ele>10.231201</ele>
        <time>2014-08-22T08:20:23Z</time>
      </trkpt>
      <trkpt lat="46.19191" lon="-1.33689">
        <ele>10.231201</ele>
        <time>2014-08-22T08:20:34Z</time>
      </trkpt>
      <trkpt lat="46.19173" lon="-1.3361">
        <ele>10.231201</ele>
        <time>2014-08-22T08:20:49Z</time>
      </trkpt>
      <trkpt lat="46.19148" lon="-1.33508">
        <ele>10.231201</ele>
        <time>2014-08-22T08:21:07Z</time>
      </trkpt>
      <trkpt lat="46.19122" lon="-1.33436">
        <ele>10.711792</ele>
        <time>2014-08-22T08:21:21Z</time>
      </trkpt>
      <trkpt lat="46.19096" lon="-1.33386">
        <ele>10.711792</ele>
        <time>2014-08-22T08:21:33Z</time>
      </trkpt>
      <trkpt lat="46.1909" lon="-1.33348">
        <ele>10.231201</ele>
        <time>2014-08-22T08:21:44Z</time>
      </trkpt>
      <trkpt lat="46.19089" lon="-1.33349">
        <ele>10.231201</ele>
        <time>2014-08-22T08:21:50Z</time>
      </trkpt>
      <trkpt lat="46.19082" lon="-1.33337">
        <ele>10.231201</ele>
        <time>2014-08-22T08:21:57Z</time>
      </trkpt>
      <trkpt lat="46.19089" lon="-1.33254">
        <ele>10.711792</ele>
        <time>2014-08-22T08:22:17Z</time>
      </trkpt>
      <trkpt lat="46.19074" lon="-1.33177">
        <ele>10.711792</ele>
        <time>2014-08-22T08:22:33Z</time>
      </trkpt>
      <trkpt lat="46.19078" lon="-1.33097">
        <ele>10.231201</ele>
        <time>2014-08-22T08:22:47Z</time>
      </trkpt>
      <trkpt lat="46.19106" lon="-1.32989">
        <ele>9.269897</ele>
        <time>2014-08-22T08:23:08Z</time>
      </trkpt>
      <trkpt lat="46.19108" lon="-1.3297">
        <ele>10.231201</ele>
        <time>2014-08-22T08:23:13Z</time>
      </trkpt>
      <trkpt lat="46.19124" lon="-1.32962">
        <ele>10.231201</ele>
        <time>2014-08-22T08:23:21Z</time>
      </trkpt>
      <trkpt lat="46.19125" lon="-1.32956">
        <ele>10.231201</ele>
        <time>2014-08-22T08:23:23Z</time>
      </trkpt>
      <trkpt lat="46.19113" lon="-1.32921">
        <ele>11.192505</ele>
        <time>2014-08-22T08:23:37Z</time>
      </trkpt>
      <trkpt lat="46.19099" lon="-1.32897">
        <ele>10.231201</ele>
        <time>2014-08-22T08:23:50Z</time>
      </trkpt>
      <trkpt lat="46.19083" lon="-1.32874">
        <ele>10.231201</ele>
        <time>2014-08-22T08:24:05Z</time>
      </trkpt>
      <trkpt lat="46.19065" lon="-1.32846">
        <ele>10.711792</ele>
        <time>2014-08-22T08:24:20Z</time>
      </trkpt>
      <trkpt lat="46.19049" lon="-1.32823">
        <ele>10.231201</ele>
        <time>2014-08-22T08:24:34Z</time>
      </trkpt>
      <trkpt lat="46.19032" lon="-1.32804">
        <ele>10.711792</ele>
        <time>2014-08-22T08:24:47Z</time>
      </trkpt>
      <trkpt lat="46.19024" lon="-1.32794">
        <ele>10.231201</ele>
        <time>2014-08-22T08:24:53Z</time>
      </trkpt>
      <trkpt lat="46.19016" lon="-1.32794">
        <ele>9.75061</ele>
        <time>2014-08-22T08:25:04Z</time>
      </trkpt>
      <trkpt lat="46.19014" lon="-1.32797">
        <ele>9.75061</ele>
        <time>2014-08-22T08:25:15Z</time>
      </trkpt>
      <trkpt lat="46.19008" lon="-1.32799">
        <ele>10.711792</ele>
        <time>2014-08-22T08:25:21Z</time>
      </trkpt>
      <trkpt lat="46.18993" lon="-1.32776">
        <ele>10.231201</ele>
        <time>2014-08-22T08:25:31Z</time>
      </trkpt>
      <trkpt lat="46.18975" lon="-1.32774">
        <ele>10.711792</ele>
        <time>2014-08-22T08:25:44Z</time>
      </trkpt>
      <trkpt lat="46.18969" lon="-1.32764">
        <ele>10.231201</ele>
        <time>2014-08-22T08:25:48Z</time>
      </trkpt>
      <trkpt lat="46.1894" lon="-1.3272">
        <ele>10.711792</ele>
        <time>2014-08-22T08:26:05Z</time>
      </trkpt>
      <trkpt lat="46.18922" lon="-1.32688">
        <ele>10.231201</ele>
        <time>2014-08-22T08:26:18Z</time>
      </trkpt>
      <trkpt lat="46.18911" lon="-1.32668">
        <ele>9.75061</ele>
        <time>2014-08-22T08:26:29Z</time>
      </trkpt>
      <trkpt lat="46.1891" lon="-1.32666">
        <ele>9.75061</ele>
        <time>2014-08-22T08:26:30Z</time>
      </trkpt>
      <trkpt lat="46.18911" lon="-1.32654">
        <ele>9.269897</ele>
        <time>2014-08-22T08:26:43Z</time>
      </trkpt>
      <trkpt lat="46.18912" lon="-1.32653">
        <ele>10.231201</ele>
        <time>2014-08-22T08:26:45Z</time>
      </trkpt>
      <trkpt lat="46.18919" lon="-1.32655">
        <ele>9.75061</ele>
        <time>2014-08-22T08:26:50Z</time>
      </trkpt>
      <trkpt lat="46.18938" lon="-1.32647">
        <ele>8.789185</ele>
        <time>2014-08-22T08:27:03Z</time>
      </trkpt>
      <trkpt lat="46.18943" lon="-1.3264">
        <ele>9.269897</ele>
        <time>2014-08-22T08:27:15Z</time>
      </trkpt>
      <trkpt lat="46.18938" lon="-1.32633">
        <ele>9.269897</ele>
        <time>2014-08-22T08:27:31Z</time>
      </trkpt>
      <trkpt lat="46.1893" lon="-1.32619">
        <ele>8.789185</ele>
        <time>2014-08-22T08:27:49Z</time>
      </trkpt>
      <trkpt lat="46.18924" lon="-1.32604">
        <ele>8.789185</ele>
        <time>2014-08-22T08:28:08Z</time>
      </trkpt>
      <trkpt lat="46.18922" lon="-1.32592">
        <ele>8.308594</ele>
        <time>2014-08-22T08:28:23Z</time>
      </trkpt>
      <trkpt lat="46.18914" lon="-1.32582">
        <ele>7.827881</ele>
        <time>2014-08-22T08:28:40Z</time>
      </trkpt>
      <trkpt lat="46.18913" lon="-1.32571">
        <ele>8.789185</ele>
        <time>2014-08-22T08:28:55Z</time>
      </trkpt>
      <trkpt lat="46.18909" lon="-1.32562">
        <ele>9.269897</ele>
        <time>2014-08-22T08:29:05Z</time>
      </trkpt>
      <trkpt lat="46.18898" lon="-1.32538">
        <ele>8.308594</ele>
        <time>2014-08-22T08:29:28Z</time>
      </trkpt>
      <trkpt lat="46.18889" lon="-1.32521">
        <ele>8.789185</ele>
        <time>2014-08-22T08:29:45Z</time>
      </trkpt>
      <trkpt lat="46.18884" lon="-1.32502">
        <ele>8.308594</ele>
        <time>2014-08-22T08:30:03Z</time>
      </trkpt>
      <trkpt lat="46.18876" lon="-1.32478">
        <ele>8.308594</ele>
        <time>2014-08-22T08:30:24Z</time>
      </trkpt>
      <trkpt lat="46.18867" lon="-1.32455">
        <ele>8.789185</ele>
        <time>2014-08-22T08:30:46Z</time>
      </trkpt>
      <trkpt lat="46.18858" lon="-1.32436">
        <ele>8.789185</ele>
        <time>2014-08-22T08:31:06Z</time>
      </trkpt>
      <trkpt lat="46.18852" lon="-1.32416">
        <ele>8.308594</ele>
        <time>2014-08-22T08:31:25Z</time>
      </trkpt>
      <trkpt lat="46.18843" lon="-1.32401">
        <ele>8.308594</ele>
        <time>2014-08-22T08:31:44Z</time>
      </trkpt>
      <trkpt lat="46.18839" lon="-1.3239">
        <ele>7.347168</ele>
        <time>2014-08-22T08:32:17Z</time>
      </trkpt>
      <trkpt lat="46.18837" lon="-1.32385">
        <ele>7.347168</ele>
        <time>2014-08-22T08:32:39Z</time>
      </trkpt>
      <trkpt lat="46.18835" lon="-1.32386">
        <ele>6.866455</ele>
        <time>2014-08-22T08:32:58Z</time>
      </trkpt>
      <trkpt lat="46.18833" lon="-1.32389">
        <ele>7.347168</ele>
        <time>2014-08-22T08:33:29Z</time>
      </trkpt>
      <trkpt lat="46.18826" lon="-1.32391">
        <ele>7.347168</ele>
        <time>2014-08-22T08:33:46Z</time>
      </trkpt>
      <trkpt lat="46.18826" lon="-1.3239">
        <ele>7.827881</ele>
        <time>2014-08-22T08:34:35Z</time>
      </trkpt>
      <trkpt lat="46.18828" lon="-1.3239">
        <ele>6.866455</ele>
        <time>2014-08-22T08:35:18Z</time>
      </trkpt>
      <trkpt lat="46.18828" lon="-1.32389">
        <ele>7.347168</ele>
        <time>2014-08-22T08:35:31Z</time>
      </trkpt>
      <trkpt lat="46.18826" lon="-1.32397">
        <ele>6.866455</ele>
        <time>2014-08-22T08:35:52Z</time>
      </trkpt>
      <trkpt lat="46.18809" lon="-1.32408">
        <ele>7.827881</ele>
        <time>2014-08-22T08:36:14Z</time>
      </trkpt>
      <trkpt lat="46.188" lon="-1.32408">
        <ele>7.347168</ele>
        <time>2014-08-22T08:36:25Z</time>
      </trkpt>
      <trkpt lat="46.18784" lon="-1.3241">
        <ele>6.866455</ele>
        <time>2014-08-22T08:36:45Z</time>
      </trkpt>
      <trkpt lat="46.18782" lon="-1.32411">
        <ele>6.866455</ele>
        <time>2014-08-22T08:36:59Z</time>
      </trkpt>
      <trkpt lat="46.18779" lon="-1.32414">
        <ele>7.827881</ele>
        <time>2014-08-22T08:37:16Z</time>
      </trkpt>
      <trkpt lat="46.18781" lon="-1.3242">
        <ele>7.827881</ele>
        <time>2014-08-22T08:37:36Z</time>
      </trkpt>
      <trkpt lat="46.18783" lon="-1.3242">
        <ele>7.827881</ele>
        <time>2014-08-22T08:37:56Z</time>
      </trkpt>
      <trkpt lat="46.18782" lon="-1.32419">
        <ele>7.827881</ele>
        <time>2014-08-22T08:38:19Z</time>
      </trkpt>
      <trkpt lat="46.18781" lon="-1.32416">
        <ele>7.347168</ele>
        <time>2014-08-22T08:38:42Z</time>
      </trkpt>
      <trkpt lat="46.18782" lon="-1.32417">
        <ele>7.347168</ele>
        <time>2014-08-22T08:38:55Z</time>
      </trkpt>
      <trkpt lat="46.18784" lon="-1.32423">
        <ele>7.827881</ele>
        <time>2014-08-22T08:39:09Z</time>
      </trkpt>
      <trkpt lat="46.18785" lon="-1.3243">
        <ele>6.866455</ele>
        <time>2014-08-22T08:39:24Z</time>
      </trkpt>
      <trkpt lat="46.18778" lon="-1.3242">
        <ele>6.866455</ele>
        <time>2014-08-22T08:40:32Z</time>
      </trkpt>
      <trkpt lat="46.1878" lon="-1.32426">
        <ele>6.385864</ele>
        <time>2014-08-22T08:40:54Z</time>
      </trkpt>
      <trkpt lat="46.18784" lon="-1.32422">
        <ele>6.385864</ele>
        <time>2014-08-22T08:41:18Z</time>
      </trkpt>
      <trkpt lat="46.18786" lon="-1.32428">
        <ele>6.385864</ele>
        <time>2014-08-22T08:41:57Z</time>
      </trkpt>
      <trkpt lat="46.18785" lon="-1.32425">
        <ele>5.905273</ele>
        <time>2014-08-22T08:42:30Z</time>
      </trkpt>
      <trkpt lat="46.18782" lon="-1.32424">
        <ele>5.905273</ele>
        <time>2014-08-22T08:43:02Z</time>
      </trkpt>
      <trkpt lat="46.1878" lon="-1.32425">
        <ele>5.905273</ele>
        <time>2014-08-22T08:43:33Z</time>
      </trkpt>
      <trkpt lat="46.18785" lon="-1.32429">
        <ele>5.905273</ele>
        <time>2014-08-22T08:44:19Z</time>
      </trkpt>
      <trkpt lat="46.18785" lon="-1.32428">
        <ele>6.385864</ele>
        <time>2014-08-22T08:46:22Z</time>
      </trkpt>
      <trkpt lat="46.18788" lon="-1.32432">
        <ele>6.385864</ele>
        <time>2014-08-22T08:47:58Z</time>
      </trkpt>
      <trkpt lat="46.18782" lon="-1.32421">
        <ele>6.385864</ele>
        <time>2014-08-22T08:49:15Z</time>
      </trkpt>
      <trkpt lat="46.18782" lon="-1.32428">
        <ele>6.385864</ele>
        <time>2014-08-22T08:50:33Z</time>
      </trkpt>
      <trkpt lat="46.18783" lon="-1.32429">
        <ele>5.905273</ele>
        <time>2014-08-22T08:52:20Z</time>
      </trkpt>
      <trkpt lat="46.18783" lon="-1.3243">
        <ele>5.905273</ele>
        <time>2014-08-22T08:53:15Z</time>
      </trkpt>
      <trkpt lat="46.18783" lon="-1.32428">
        <ele>6.385864</ele>
        <time>2014-08-22T08:54:11Z</time>
      </trkpt>
      <trkpt lat="46.18783" lon="-1.32426">
        <ele>6.385864</ele>
        <time>2014-08-22T08:54:41Z</time>
      </trkpt>
      <trkpt lat="46.18783" lon="-1.32427">
        <ele>6.385864</ele>
        <time>2014-08-22T08:55:57Z</time>
      </trkpt>
      <trkpt lat="46.18784" lon="-1.32425">
        <ele>7.347168</ele>
        <time>2014-08-22T08:56:19Z</time>
      </trkpt>
      <trkpt lat="46.18783" lon="-1.32426">
        <ele>6.866455</ele>
        <time>2014-08-22T08:57:09Z</time>
      </trkpt>
      <trkpt lat="46.18783" lon="-1.32428">
        <ele>6.866455</ele>
        <time>2014-08-22T08:58:03Z</time>
      </trkpt>
      <trkpt lat="46.18783" lon="-1.32427">
        <ele>6.866455</ele>
        <time>2014-08-22T08:59:42Z</time>
      </trkpt>
      <trkpt lat="46.18782" lon="-1.32428">
        <ele>7.347168</ele>
        <time>2014-08-22T09:00:57Z</time>
      </trkpt>
      <trkpt lat="46.18784" lon="-1.32421">
        <ele>7.347168</ele>
        <time>2014-08-22T09:01:09Z</time>
      </trkpt>
      <trkpt lat="46.18781" lon="-1.32415">
        <ele>7.827881</ele>
        <time>2014-08-22T09:01:24Z</time>
      </trkpt>
      <trkpt lat="46.18782" lon="-1.32417">
        <ele>7.347168</ele>
        <time>2014-08-22T09:01:37Z</time>
      </trkpt>
      <trkpt lat="46.18779" lon="-1.32418">
        <ele>7.827881</ele>
        <time>2014-08-22T09:01:53Z</time>
      </trkpt>
      <trkpt lat="46.18771" lon="-1.32421">
        <ele>7.347168</ele>
        <time>2014-08-22T09:02:10Z</time>
      </trkpt>
      <trkpt lat="46.18757" lon="-1.32428">
        <ele>7.347168</ele>
        <time>2014-08-22T09:02:28Z</time>
      </trkpt>
      <trkpt lat="46.1875" lon="-1.32429">
        <ele>7.347168</ele>
        <time>2014-08-22T09:02:42Z</time>
      </trkpt>
      <trkpt lat="46.18743" lon="-1.32433">
        <ele>7.827881</ele>
        <time>2014-08-22T09:02:59Z</time>
      </trkpt>
      <trkpt lat="46.18742" lon="-1.32433">
        <ele>7.347168</ele>
        <time>2014-08-22T09:03:02Z</time>
      </trkpt>
      <trkpt lat="46.18734" lon="-1.32417">
        <ele>7.827881</ele>
        <time>2014-08-22T09:03:20Z</time>
      </trkpt>
      <trkpt lat="46.18732" lon="-1.3241">
        <ele>7.827881</ele>
        <time>2014-08-22T09:03:30Z</time>
      </trkpt>
      <trkpt lat="46.18729" lon="-1.32407">
        <ele>7.827881</ele>
        <time>2014-08-22T09:03:34Z</time>
      </trkpt>
      <trkpt lat="46.18723" lon="-1.32381">
        <ele>7.347168</ele>
        <time>2014-08-22T09:03:51Z</time>
      </trkpt>
      <trkpt lat="46.18734" lon="-1.32368">
        <ele>7.347168</ele>
        <time>2014-08-22T09:04:10Z</time>
      </trkpt>
      <trkpt lat="46.18745" lon="-1.32363">
        <ele>7.827881</ele>
        <time>2014-08-22T09:04:26Z</time>
      </trkpt>
      <trkpt lat="46.18762" lon="-1.32352">
        <ele>7.347168</ele>
        <time>2014-08-22T09:04:45Z</time>
      </trkpt>
      <trkpt lat="46.18766" lon="-1.32351">
        <ele>7.827881</ele>
        <time>2014-08-22T09:04:49Z</time>
      </trkpt>
      <trkpt lat="46.1877" lon="-1.3235">
        <ele>7.347168</ele>
        <time>2014-08-22T09:04:55Z</time>
      </trkpt>
      <trkpt lat="46.18789" lon="-1.32338">
        <ele>8.308594</ele>
        <time>2014-08-22T09:05:15Z</time>
      </trkpt>
      <trkpt lat="46.18804" lon="-1.32328">
        <ele>7.827881</ele>
        <time>2014-08-22T09:05:32Z</time>
      </trkpt>
      <trkpt lat="46.18812" lon="-1.32321">
        <ele>7.827881</ele>
        <time>2014-08-22T09:05:45Z</time>
      </trkpt>
      <trkpt lat="46.18813" lon="-1.32318">
        <ele>6.385864</ele>
        <time>2014-08-22T09:06:00Z</time>
      </trkpt>
      <trkpt lat="46.18812" lon="-1.32316">
        <ele>7.347168</ele>
        <time>2014-08-22T09:07:00Z</time>
      </trkpt>
      <trkpt lat="46.18796" lon="-1.32288">
        <ele>7.347168</ele>
        <time>2014-08-22T09:07:23Z</time>
      </trkpt>
      <trkpt lat="46.18783" lon="-1.32265">
        <ele>7.827881</ele>
        <time>2014-08-22T09:07:44Z</time>
      </trkpt>
      <trkpt lat="46.1878" lon="-1.32257">
        <ele>7.827881</ele>
        <time>2014-08-22T09:07:49Z</time>
      </trkpt>
      <trkpt lat="46.18762" lon="-1.32226">
        <ele>7.827881</ele>
        <time>2014-08-22T09:08:13Z</time>
      </trkpt>
      <trkpt lat="46.18761" lon="-1.32223">
        <ele>6.866455</ele>
        <time>2014-08-22T09:08:15Z</time>
      </trkpt>
      <trkpt lat="46.18745" lon="-1.32193">
        <ele>6.866455</ele>
        <time>2014-08-22T09:08:37Z</time>
      </trkpt>
      <trkpt lat="46.18732" lon="-1.32167">
        <ele>7.827881</ele>
        <time>2014-08-22T09:08:55Z</time>
      </trkpt>
      <trkpt lat="46.1873" lon="-1.32163">
        <ele>8.308594</ele>
        <time>2014-08-22T09:09:10Z</time>
      </trkpt>
      <trkpt lat="46.18729" lon="-1.32161">
        <ele>7.347168</ele>
        <time>2014-08-22T09:09:23Z</time>
      </trkpt>
      <trkpt lat="46.18726" lon="-1.32156">
        <ele>8.789185</ele>
        <time>2014-08-22T09:09:26Z</time>
      </trkpt>
      <trkpt lat="46.18722" lon="-1.32149">
        <ele>8.789185</ele>
        <time>2014-08-22T09:09:29Z</time>
      </trkpt>
      <trkpt lat="46.18709" lon="-1.32093">
        <ele>8.789185</ele>
        <time>2014-08-22T09:09:47Z</time>
      </trkpt>
      <trkpt lat="46.187" lon="-1.32041">
        <ele>8.308594</ele>
        <time>2014-08-22T09:10:04Z</time>
      </trkpt>
      <trkpt lat="46.18693" lon="-1.31984">
        <ele>7.827881</ele>
        <time>2014-08-22T09:10:22Z</time>
      </trkpt>
      <trkpt lat="46.18688" lon="-1.31937">
        <ele>7.827881</ele>
        <time>2014-08-22T09:10:38Z</time>
      </trkpt>
      <trkpt lat="46.1868" lon="-1.31872">
        <ele>7.827881</ele>
        <time>2014-08-22T09:10:58Z</time>
      </trkpt>
      <trkpt lat="46.18677" lon="-1.31815">
        <ele>7.827881</ele>
        <time>2014-08-22T09:11:17Z</time>
      </trkpt>
      <trkpt lat="46.1868" lon="-1.31772">
        <ele>7.347168</ele>
        <time>2014-08-22T09:11:31Z</time>
      </trkpt>
      <trkpt lat="46.18684" lon="-1.31721">
        <ele>7.827881</ele>
        <time>2014-08-22T09:11:48Z</time>
      </trkpt>
      <trkpt lat="46.18693" lon="-1.31663">
        <ele>8.308594</ele>
        <time>2014-08-22T09:12:07Z</time>
      </trkpt>
      <trkpt lat="46.18702" lon="-1.31614">
        <ele>9.269897</ele>
        <time>2014-08-22T09:12:22Z</time>
      </trkpt>
      <trkpt lat="46.18716" lon="-1.3157">
        <ele>9.269897</ele>
        <time>2014-08-22T09:12:36Z</time>
      </trkpt>
      <trkpt lat="46.1874" lon="-1.31516">
        <ele>9.269897</ele>
        <time>2014-08-22T09:12:52Z</time>
      </trkpt>
      <trkpt lat="46.18773" lon="-1.31451">
        <ele>8.308594</ele>
        <time>2014-08-22T09:13:12Z</time>
      </trkpt>
      <trkpt lat="46.18802" lon="-1.31397">
        <ele>7.827881</ele>
        <time>2014-08-22T09:13:29Z</time>
      </trkpt>
      <trkpt lat="46.18815" lon="-1.31331">
        <ele>6.385864</ele>
        <time>2014-08-22T09:13:44Z</time>
      </trkpt>
      <trkpt lat="46.18809" lon="-1.31289">
        <ele>7.347168</ele>
        <time>2014-08-22T09:13:57Z</time>
      </trkpt>
      <trkpt lat="46.18811" lon="-1.3122">
        <ele>7.347168</ele>
        <time>2014-08-22T09:14:14Z</time>
      </trkpt>
      <trkpt lat="46.18785" lon="-1.31165">
        <ele>8.308594</ele>
        <time>2014-08-22T09:14:28Z</time>
      </trkpt>
      <trkpt lat="46.18781" lon="-1.3112">
        <ele>7.347168</ele>
        <time>2014-08-22T09:14:38Z</time>
      </trkpt>
      <trkpt lat="46.18794" lon="-1.31078">
        <ele>6.866455</ele>
        <time>2014-08-22T09:14:52Z</time>
      </trkpt>
      <trkpt lat="46.18793" lon="-1.31079">
        <ele>6.866455</ele>
        <time>2014-08-22T09:15:14Z</time>
      </trkpt>
      <trkpt lat="46.18795" lon="-1.31072">
        <ele>7.347168</ele>
        <time>2014-08-22T09:15:18Z</time>
      </trkpt>
      <trkpt lat="46.188" lon="-1.31011">
        <ele>8.308594</ele>
        <time>2014-08-22T09:15:36Z</time>
      </trkpt>
      <trkpt lat="46.18799" lon="-1.30995">
        <ele>8.789185</ele>
        <time>2014-08-22T09:15:39Z</time>
      </trkpt>
      <trkpt lat="46.18773" lon="-1.30893">
        <ele>10.231201</ele>
        <time>2014-08-22T09:15:57Z</time>
      </trkpt>
      <trkpt lat="46.18755" lon="-1.30802">
        <ele>11.192505</ele>
        <time>2014-08-22T09:16:14Z</time>
      </trkpt>
      <trkpt lat="46.18771" lon="-1.30766">
        <ele>9.75061</ele>
        <time>2014-08-22T09:16:25Z</time>
      </trkpt>
      <trkpt lat="46.18806" lon="-1.3074">
        <ele>10.711792</ele>
        <time>2014-08-22T09:16:38Z</time>
      </trkpt>
      <trkpt lat="46.18844" lon="-1.30709">
        <ele>10.711792</ele>
        <time>2014-08-22T09:16:52Z</time>
      </trkpt>
      <trkpt lat="46.18891" lon="-1.30668">
        <ele>10.231201</ele>
        <time>2014-08-22T09:17:10Z</time>
      </trkpt>
      <trkpt lat="46.18894" lon="-1.30622">
        <ele>10.231201</ele>
        <time>2014-08-22T09:17:22Z</time>
      </trkpt>
      <trkpt lat="46.18907" lon="-1.30581">
        <ele>9.75061</ele>
        <time>2014-08-22T09:17:34Z</time>
      </trkpt>
      <trkpt lat="46.18942" lon="-1.30547">
        <ele>10.231201</ele>
        <time>2014-08-22T09:17:49Z</time>
      </trkpt>
      <trkpt lat="46.18974" lon="-1.30519">
        <ele>9.75061</ele>
        <time>2014-08-22T09:18:03Z</time>
      </trkpt>
      <trkpt lat="46.19002" lon="-1.30485">
        <ele>8.308594</ele>
        <time>2014-08-22T09:18:16Z</time>
      </trkpt>
      <trkpt lat="46.19012" lon="-1.30447">
        <ele>7.347168</ele>
        <time>2014-08-22T09:18:29Z</time>
      </trkpt>
      <trkpt lat="46.19001" lon="-1.30396">
        <ele>7.827881</ele>
        <time>2014-08-22T09:18:44Z</time>
      </trkpt>
      <trkpt lat="46.18987" lon="-1.30328">
        <ele>9.269897</ele>
        <time>2014-08-22T09:19:03Z</time>
      </trkpt>
      <trkpt lat="46.18976" lon="-1.30263">
        <ele>10.711792</ele>
        <time>2014-08-22T09:19:20Z</time>
      </trkpt>
      <trkpt lat="46.18957" lon="-1.30201">
        <ele>10.711792</ele>
        <time>2014-08-22T09:19:37Z</time>
      </trkpt>
      <trkpt lat="46.18938" lon="-1.30138">
        <ele>11.192505</ele>
        <time>2014-08-22T09:19:56Z</time>
      </trkpt>
      <trkpt lat="46.18918" lon="-1.30077">
        <ele>11.192505</ele>
        <time>2014-08-22T09:20:13Z</time>
      </trkpt>
      <trkpt lat="46.18901" lon="-1.30016">
        <ele>11.673218</ele>
        <time>2014-08-22T09:20:31Z</time>
      </trkpt>
      <trkpt lat="46.18895" lon="-1.29943">
        <ele>11.673218</ele>
        <time>2014-08-22T09:20:50Z</time>
      </trkpt>
      <trkpt lat="46.18888" lon="-1.29897">
        <ele>11.192505</ele>
        <time>2014-08-22T09:21:06Z</time>
      </trkpt>
      <trkpt lat="46.18876" lon="-1.29842">
        <ele>11.673218</ele>
        <time>2014-08-22T09:21:20Z</time>
      </trkpt>
      <trkpt lat="46.18856" lon="-1.29775">
        <ele>12.634399</ele>
        <time>2014-08-22T09:21:38Z</time>
      </trkpt>
      <trkpt lat="46.18846" lon="-1.29716">
        <ele>11.673218</ele>
        <time>2014-08-22T09:21:53Z</time>
      </trkpt>
      <trkpt lat="46.18837" lon="-1.29654">
        <ele>12.153809</ele>
        <time>2014-08-22T09:22:08Z</time>
      </trkpt>
      <trkpt lat="46.18823" lon="-1.29585">
        <ele>12.153809</ele>
        <time>2014-08-22T09:22:25Z</time>
      </trkpt>
      <trkpt lat="46.18802" lon="-1.29506">
        <ele>11.673218</ele>
        <time>2014-08-22T09:22:46Z</time>
      </trkpt>
      <trkpt lat="46.18792" lon="-1.29452">
        <ele>11.673218</ele>
        <time>2014-08-22T09:23:01Z</time>
      </trkpt>
      <trkpt lat="46.18772" lon="-1.29386">
        <ele>11.673218</ele>
        <time>2014-08-22T09:23:21Z</time>
      </trkpt>
      <trkpt lat="46.18749" lon="-1.29331">
        <ele>11.673218</ele>
        <time>2014-08-22T09:23:40Z</time>
      </trkpt>
      <trkpt lat="46.1874" lon="-1.29313">
        <ele>11.673218</ele>
        <time>2014-08-22T09:23:53Z</time>
      </trkpt>
      <trkpt lat="46.18726" lon="-1.29287">
        <ele>11.673218</ele>
        <time>2014-08-22T09:24:06Z</time>
      </trkpt>
      <trkpt lat="46.18702" lon="-1.29244">
        <ele>10.231201</ele>
        <time>2014-08-22T09:24:20Z</time>
      </trkpt>
      <trkpt lat="46.1867" lon="-1.29192">
        <ele>8.789185</ele>
        <time>2014-08-22T09:24:38Z</time>
      </trkpt>
      <trkpt lat="46.18632" lon="-1.29152">
        <ele>8.308594</ele>
        <time>2014-08-22T09:24:55Z</time>
      </trkpt>
      <trkpt lat="46.186" lon="-1.29127">
        <ele>6.866455</ele>
        <time>2014-08-22T09:25:09Z</time>
      </trkpt>
      <trkpt lat="46.18597" lon="-1.29124">
        <ele>6.866455</ele>
        <time>2014-08-22T09:25:18Z</time>
      </trkpt>
      <trkpt lat="46.18597" lon="-1.29124">
        <ele>5.905273</ele>
        <time>2014-08-22T09:25:40Z</time>
      </trkpt>
      <trkpt lat="46.18591" lon="-1.29116">
        <ele>7.347168</ele>
        <time>2014-08-22T09:25:44Z</time>
      </trkpt>
      <trkpt lat="46.18544" lon="-1.29085">
        <ele>7.347168</ele>
        <time>2014-08-22T09:25:58Z</time>
      </trkpt>
      <trkpt lat="46.18531" lon="-1.29083">
        <ele>6.866455</ele>
        <time>2014-08-22T09:26:08Z</time>
      </trkpt>
      <trkpt lat="46.18525" lon="-1.29083">
        <ele>6.866455</ele>
        <time>2014-08-22T09:26:30Z</time>
      </trkpt>
      <trkpt lat="46.18516" lon="-1.29084">
        <ele>6.866455</ele>
        <time>2014-08-22T09:26:33Z</time>
      </trkpt>
      <trkpt lat="46.18481" lon="-1.29109">
        <ele>8.308594</ele>
        <time>2014-08-22T09:26:43Z</time>
      </trkpt>
      <trkpt lat="46.1848" lon="-1.29115">
        <ele>8.789185</ele>
        <time>2014-08-22T09:26:44Z</time>
      </trkpt>
      <trkpt lat="46.18475" lon="-1.29149">
        <ele>7.827881</ele>
        <time>2014-08-22T09:26:50Z</time>
      </trkpt>
      <trkpt lat="46.18457" lon="-1.29274">
        <ele>9.75061</ele>
        <time>2014-08-22T09:27:10Z</time>
      </trkpt>
      <trkpt lat="46.18445" lon="-1.2938">
        <ele>10.231201</ele>
        <time>2014-08-22T09:27:27Z</time>
      </trkpt>
      <trkpt lat="46.18446" lon="-1.29443">
        <ele>11.673218</ele>
        <time>2014-08-22T09:27:41Z</time>
      </trkpt>
      <trkpt lat="46.18449" lon="-1.29496">
        <ele>11.673218</ele>
        <time>2014-08-22T09:27:57Z</time>
      </trkpt>
      <trkpt lat="46.18451" lon="-1.29552">
        <ele>11.673218</ele>
        <time>2014-08-22T09:28:13Z</time>
      </trkpt>
      <trkpt lat="46.18445" lon="-1.2962">
        <ele>12.634399</ele>
        <time>2014-08-22T09:28:34Z</time>
      </trkpt>
      <trkpt lat="46.18434" lon="-1.29674">
        <ele>13.115112</ele>
        <time>2014-08-22T09:28:50Z</time>
      </trkpt>
      <trkpt lat="46.18426" lon="-1.29753">
        <ele>13.595825</ele>
        <time>2014-08-22T09:29:07Z</time>
      </trkpt>
      <trkpt lat="46.18425" lon="-1.29788">
        <ele>13.595825</ele>
        <time>2014-08-22T09:29:20Z</time>
      </trkpt>
      <trkpt lat="46.18427" lon="-1.29794">
        <ele>13.115112</ele>
        <time>2014-08-22T09:29:34Z</time>
      </trkpt>
      <trkpt lat="46.18427" lon="-1.29793">
        <ele>13.115112</ele>
        <time>2014-08-22T09:30:07Z</time>
      </trkpt>
      <trkpt lat="46.18427" lon="-1.29793">
        <ele>12.634399</ele>
        <time>2014-08-22T09:30:25Z</time>
      </trkpt>
      <trkpt lat="46.18427" lon="-1.29795">
        <ele>12.634399</ele>
        <time>2014-08-22T09:31:36Z</time>
      </trkpt>
      <trkpt lat="46.18394" lon="-1.29808">
        <ele>13.595825</ele>
        <time>2014-08-22T09:31:51Z</time>
      </trkpt>
      <trkpt lat="46.18345" lon="-1.29824">
        <ele>13.115112</ele>
        <time>2014-08-22T09:32:07Z</time>
      </trkpt>
      <trkpt lat="46.18295" lon="-1.2984">
        <ele>13.115112</ele>
        <time>2014-08-22T09:32:23Z</time>
      </trkpt>
      <trkpt lat="46.18278" lon="-1.29848">
        <ele>13.115112</ele>
        <time>2014-08-22T09:32:32Z</time>
      </trkpt>
      <trkpt lat="46.18277" lon="-1.2986">
        <ele>12.634399</ele>
        <time>2014-08-22T09:32:37Z</time>
      </trkpt>
      <trkpt lat="46.18289" lon="-1.29914">
        <ele>13.115112</ele>
        <time>2014-08-22T09:32:50Z</time>
      </trkpt>
      <trkpt lat="46.18316" lon="-1.2998">
        <ele>14.076416</ele>
        <time>2014-08-22T09:33:05Z</time>
      </trkpt>
      <trkpt lat="46.18304" lon="-1.29994">
        <ele>14.076416</ele>
        <time>2014-08-22T09:33:12Z</time>
      </trkpt>
      <trkpt lat="46.18234" lon="-1.30028">
        <ele>14.557007</ele>
        <time>2014-08-22T09:33:33Z</time>
      </trkpt>
      <trkpt lat="46.18193" lon="-1.30057">
        <ele>14.076416</ele>
        <time>2014-08-22T09:33:45Z</time>
      </trkpt>
      <trkpt lat="46.18159" lon="-1.30084">
        <ele>13.595825</ele>
        <time>2014-08-22T09:33:57Z</time>
      </trkpt>
      <trkpt lat="46.18114" lon="-1.3011">
        <ele>13.595825</ele>
        <time>2014-08-22T09:34:11Z</time>
      </trkpt>
      <trkpt lat="46.18063" lon="-1.30121">
        <ele>14.076416</ele>
        <time>2014-08-22T09:34:25Z</time>
      </trkpt>
      <trkpt lat="46.18005" lon="-1.30158">
        <ele>13.115112</ele>
        <time>2014-08-22T09:34:42Z</time>
      </trkpt>
      <trkpt lat="46.1795" lon="-1.30188">
        <ele>13.115112</ele>
        <time>2014-08-22T09:34:59Z</time>
      </trkpt>
      <trkpt lat="46.17915" lon="-1.30202">
        <ele>12.634399</ele>
        <time>2014-08-22T09:35:10Z</time>
      </trkpt>
      <trkpt lat="46.17866" lon="-1.30226">
        <ele>11.673218</ele>
        <time>2014-08-22T09:35:22Z</time>
      </trkpt>
      <trkpt lat="46.17846" lon="-1.30234">
        <ele>10.711792</ele>
        <time>2014-08-22T09:35:27Z</time>
      </trkpt>
      <trkpt lat="46.17825" lon="-1.3025">
        <ele>9.75061</ele>
        <time>2014-08-22T09:35:33Z</time>
      </trkpt>
      <trkpt lat="46.17777" lon="-1.30283">
        <ele>8.308594</ele>
        <time>2014-08-22T09:35:47Z</time>
      </trkpt>
      <trkpt lat="46.17769" lon="-1.30298">
        <ele>8.308594</ele>
        <time>2014-08-22T09:35:52Z</time>
      </trkpt>
      <trkpt lat="46.17802" lon="-1.30356">
        <ele>9.269897</ele>
        <time>2014-08-22T09:36:10Z</time>
      </trkpt>
      <trkpt lat="46.17839" lon="-1.3041">
        <ele>10.711792</ele>
        <time>2014-08-22T09:36:27Z</time>
      </trkpt>
      <trkpt lat="46.17881" lon="-1.30471">
        <ele>12.153809</ele>
        <time>2014-08-22T09:36:45Z</time>
      </trkpt>
      <trkpt lat="46.17929" lon="-1.30527">
        <ele>12.634399</ele>
        <time>2014-08-22T09:37:03Z</time>
      </trkpt>
      <trkpt lat="46.17983" lon="-1.30604">
        <ele>12.634399</ele>
        <time>2014-08-22T09:37:24Z</time>
      </trkpt>
      <trkpt lat="46.18034" lon="-1.30663">
        <ele>14.076416</ele>
        <time>2014-08-22T09:37:43Z</time>
      </trkpt>
      <trkpt lat="46.18084" lon="-1.30739">
        <ele>14.076416</ele>
        <time>2014-08-22T09:38:04Z</time>
      </trkpt>
      <trkpt lat="46.18114" lon="-1.30794">
        <ele>15.03772</ele>
        <time>2014-08-22T09:38:19Z</time>
      </trkpt>
      <trkpt lat="46.18153" lon="-1.30877">
        <ele>13.595825</ele>
        <time>2014-08-22T09:38:38Z</time>
      </trkpt>
      <trkpt lat="46.18191" lon="-1.30944">
        <ele>14.076416</ele>
        <time>2014-08-22T09:38:54Z</time>
      </trkpt>
      <trkpt lat="46.18229" lon="-1.31003">
        <ele>14.076416</ele>
        <time>2014-08-22T09:39:09Z</time>
      </trkpt>
      <trkpt lat="46.18251" lon="-1.31045">
        <ele>12.634399</ele>
        <time>2014-08-22T09:39:25Z</time>
      </trkpt>
      <trkpt lat="46.18256" lon="-1.31053">
        <ele>12.153809</ele>
        <time>2014-08-22T09:39:39Z</time>
      </trkpt>
      <trkpt lat="46.18256" lon="-1.31055">
        <ele>13.115112</ele>
        <time>2014-08-22T09:39:56Z</time>
      </trkpt>
      <trkpt lat="46.18269" lon="-1.31086">
        <ele>13.115112</ele>
        <time>2014-08-22T09:40:09Z</time>
      </trkpt>
      <trkpt lat="46.18295" lon="-1.31154">
        <ele>13.115112</ele>
        <time>2014-08-22T09:40:25Z</time>
      </trkpt>
      <trkpt lat="46.18325" lon="-1.31228">
        <ele>11.192505</ele>
        <time>2014-08-22T09:40:43Z</time>
      </trkpt>
      <trkpt lat="46.18335" lon="-1.31254">
        <ele>11.192505</ele>
        <time>2014-08-22T09:40:58Z</time>
      </trkpt>
      <trkpt lat="46.18335" lon="-1.31256">
        <ele>11.192505</ele>
        <time>2014-08-22T09:41:14Z</time>
      </trkpt>
      <trkpt lat="46.18338" lon="-1.31257">
        <ele>11.192505</ele>
        <time>2014-08-22T09:41:45Z</time>
      </trkpt>
      <trkpt lat="46.1834" lon="-1.31259">
        <ele>10.711792</ele>
        <time>2014-08-22T09:42:11Z</time>
      </trkpt>
      <trkpt lat="46.18354" lon="-1.31277">
        <ele>11.192505</ele>
        <time>2014-08-22T09:42:27Z</time>
      </trkpt>
      <trkpt lat="46.18389" lon="-1.31309">
        <ele>11.192505</ele>
        <time>2014-08-22T09:42:42Z</time>
      </trkpt>
      <trkpt lat="46.18419" lon="-1.31357">
        <ele>11.192505</ele>
        <time>2014-08-22T09:42:58Z</time>
      </trkpt>
      <trkpt lat="46.18445" lon="-1.31433">
        <ele>10.711792</ele>
        <time>2014-08-22T09:43:16Z</time>
      </trkpt>
      <trkpt lat="46.18468" lon="-1.31531">
        <ele>11.192505</ele>
        <time>2014-08-22T09:43:35Z</time>
      </trkpt>
      <trkpt lat="46.18481" lon="-1.31595">
        <ele>10.231201</ele>
        <time>2014-08-22T09:43:49Z</time>
      </trkpt>
      <trkpt lat="46.1849" lon="-1.316">
        <ele>7.827881</ele>
        <time>2014-08-22T09:43:54Z</time>
      </trkpt>
      <trkpt lat="46.18492" lon="-1.31598">
        <ele>7.827881</ele>
        <time>2014-08-22T09:44:12Z</time>
      </trkpt>
      <trkpt lat="46.18497" lon="-1.31609">
        <ele>7.827881</ele>
        <time>2014-08-22T09:44:19Z</time>
      </trkpt>
      <trkpt lat="46.18494" lon="-1.31703">
        <ele>6.866455</ele>
        <time>2014-08-22T09:44:37Z</time>
      </trkpt>
      <trkpt lat="46.18497" lon="-1.31729">
        <ele>6.866455</ele>
        <time>2014-08-22T09:44:41Z</time>
      </trkpt>
      <trkpt lat="46.18529" lon="-1.31827">
        <ele>5.424561</ele>
        <time>2014-08-22T09:44:59Z</time>
      </trkpt>
      <trkpt lat="46.18548" lon="-1.31887">
        <ele>4.463257</ele>
        <time>2014-08-22T09:45:09Z</time>
      </trkpt>
      <trkpt lat="46.18576" lon="-1.31931">
        <ele>3.982666</ele>
        <time>2014-08-22T09:45:17Z</time>
      </trkpt>
      <trkpt lat="46.18604" lon="-1.31954">
        <ele>2.540649</ele>
        <time>2014-08-22T09:45:23Z</time>
      </trkpt>
      <trkpt lat="46.18628" lon="-1.31994">
        <ele>2.060059</ele>
        <time>2014-08-22T09:45:30Z</time>
      </trkpt>
      <trkpt lat="46.18645" lon="-1.32114">
        <ele>1.579346</ele>
        <time>2014-08-22T09:45:47Z</time>
      </trkpt>
      <trkpt lat="46.18663" lon="-1.32214">
        <ele>0.618042</ele>
        <time>2014-08-22T09:46:03Z</time>
      </trkpt>
      <trkpt lat="46.18681" lon="-1.32259">
        <ele>0.137451</ele>
        <time>2014-08-22T09:46:10Z</time>
      </trkpt>
      <trkpt lat="46.18707" lon="-1.32324">
        <ele>0.618042</ele>
        <time>2014-08-22T09:46:24Z</time>
      </trkpt>
      <trkpt lat="46.18724" lon="-1.32382">
        <ele>0.618042</ele>
        <time>2014-08-22T09:46:38Z</time>
      </trkpt>
      <trkpt lat="46.18736" lon="-1.32419">
        <ele>1.579346</ele>
        <time>2014-08-22T09:46:51Z</time>
      </trkpt>
      <trkpt lat="46.18756" lon="-1.32435">
        <ele>1.579346</ele>
        <time>2014-08-22T09:47:04Z</time>
      </trkpt>
      <trkpt lat="46.1878" lon="-1.32423">
        <ele>2.060059</ele>
        <time>2014-08-22T09:47:20Z</time>
      </trkpt>
      <trkpt lat="46.18812" lon="-1.32415">
        <ele>2.060059</ele>
        <time>2014-08-22T09:47:36Z</time>
      </trkpt>
      <trkpt lat="46.18827" lon="-1.32457">
        <ele>2.060059</ele>
        <time>2014-08-22T09:47:50Z</time>
      </trkpt>
      <trkpt lat="46.18846" lon="-1.32496">
        <ele>2.060059</ele>
        <time>2014-08-22T09:48:01Z</time>
      </trkpt>
      <trkpt lat="46.18871" lon="-1.32554">
        <ele>2.060059</ele>
        <time>2014-08-22T09:48:16Z</time>
      </trkpt>
      <trkpt lat="46.18897" lon="-1.32604">
        <ele>2.060059</ele>
        <time>2014-08-22T09:48:28Z</time>
      </trkpt>
      <trkpt lat="46.1892" lon="-1.32647">
        <ele>2.540649</ele>
        <time>2014-08-22T09:48:42Z</time>
      </trkpt>
      <trkpt lat="46.18949" lon="-1.32696">
        <ele>1.579346</ele>
        <time>2014-08-22T09:48:59Z</time>
      </trkpt>
      <trkpt lat="46.18978" lon="-1.32738">
        <ele>2.060059</ele>
        <time>2014-08-22T09:49:15Z</time>
      </trkpt>
      <trkpt lat="46.19005" lon="-1.32784">
        <ele>2.540649</ele>
        <time>2014-08-22T09:49:27Z</time>
      </trkpt>
      <trkpt lat="46.19059" lon="-1.32864">
        <ele>2.540649</ele>
        <time>2014-08-22T09:49:44Z</time>
      </trkpt>
      <trkpt lat="46.19066" lon="-1.32875">
        <ele>2.060059</ele>
        <time>2014-08-22T09:49:46Z</time>
      </trkpt>
      <trkpt lat="46.1911" lon="-1.32953">
        <ele>2.060059</ele>
        <time>2014-08-22T09:50:01Z</time>
      </trkpt>
      <trkpt lat="46.19113" lon="-1.3297">
        <ele>1.579346</ele>
        <time>2014-08-22T09:50:04Z</time>
      </trkpt>
      <trkpt lat="46.19108" lon="-1.33017">
        <ele>2.060059</ele>
        <time>2014-08-22T09:50:11Z</time>
      </trkpt>
      <trkpt lat="46.19097" lon="-1.33049">
        <ele>1.579346</ele>
        <time>2014-08-22T09:50:16Z</time>
      </trkpt>
      <trkpt lat="46.19076" lon="-1.33156">
        <ele>1.098633</ele>
        <time>2014-08-22T09:50:33Z</time>
      </trkpt>
      <trkpt lat="46.19079" lon="-1.33186">
        <ele>0.618042</ele>
        <time>2014-08-22T09:50:38Z</time>
      </trkpt>
      <trkpt lat="46.19091" lon="-1.33226">
        <ele>1.579346</ele>
        <time>2014-08-22T09:50:45Z</time>
      </trkpt>
      <trkpt lat="46.19094" lon="-1.33305">
        <ele>2.060059</ele>
        <time>2014-08-22T09:50:59Z</time>
      </trkpt>
      <trkpt lat="46.19093" lon="-1.33372">
        <ele>1.098633</ele>
        <time>2014-08-22T09:51:13Z</time>
      </trkpt>
      <trkpt lat="46.19109" lon="-1.33416">
        <ele>1.098633</ele>
        <time>2014-08-22T09:51:25Z</time>
      </trkpt>
      <trkpt lat="46.19135" lon="-1.33462">
        <ele>1.579346</ele>
        <time>2014-08-22T09:51:37Z</time>
      </trkpt>
      <trkpt lat="46.19162" lon="-1.33556">
        <ele>1.098633</ele>
        <time>2014-08-22T09:51:55Z</time>
      </trkpt>
      <trkpt lat="46.19184" lon="-1.33653">
        <ele>2.060059</ele>
        <time>2014-08-22T09:52:12Z</time>
      </trkpt>
      <trkpt lat="46.19213" lon="-1.33779">
        <ele>2.060059</ele>
        <time>2014-08-22T09:52:35Z</time>
      </trkpt>
      <trkpt lat="46.19221" lon="-1.33816">
        <ele>2.060059</ele>
        <time>2014-08-22T09:52:46Z</time>
      </trkpt>
      <trkpt lat="46.19243" lon="-1.33907">
        <ele>2.540649</ele>
        <time>2014-08-22T09:53:02Z</time>
      </trkpt>
      <trkpt lat="46.19265" lon="-1.33998">
        <ele>3.982666</ele>
        <time>2014-08-22T09:53:16Z</time>
      </trkpt>
      <trkpt lat="46.19293" lon="-1.34121">
        <ele>5.424561</ele>
        <time>2014-08-22T09:53:39Z</time>
      </trkpt>
      <trkpt lat="46.19301" lon="-1.3416">
        <ele>6.385864</ele>
        <time>2014-08-22T09:53:51Z</time>
      </trkpt>
      <trkpt lat="46.19314" lon="-1.34213">
        <ele>7.827881</ele>
        <time>2014-08-22T09:54:04Z</time>
      </trkpt>
      <trkpt lat="46.19335" lon="-1.34307">
        <ele>7.827881</ele>
        <time>2014-08-22T09:54:21Z</time>
      </trkpt>
      <trkpt lat="46.19369" lon="-1.34419">
        <ele>8.308594</ele>
        <time>2014-08-22T09:54:40Z</time>
      </trkpt>
      <trkpt lat="46.19394" lon="-1.34513">
        <ele>9.269897</ele>
        <time>2014-08-22T09:54:58Z</time>
      </trkpt>
      <trkpt lat="46.19417" lon="-1.34607">
        <ele>8.789185</ele>
        <time>2014-08-22T09:55:17Z</time>
      </trkpt>
      <trkpt lat="46.19432" lon="-1.34681">
        <ele>9.75061</ele>
        <time>2014-08-22T09:55:34Z</time>
      </trkpt>
      <trkpt lat="46.19437" lon="-1.34717">
        <ele>9.269897</ele>
        <time>2014-08-22T09:55:46Z</time>
      </trkpt>
      <trkpt lat="46.19427" lon="-1.34733">
        <ele>9.269897</ele>
        <time>2014-08-22T09:55:56Z</time>
      </trkpt>
      <trkpt lat="46.19402" lon="-1.34742">
        <ele>9.269897</ele>
        <time>2014-08-22T09:56:08Z</time>
      </trkpt>
      <trkpt lat="46.19399" lon="-1.34743">
        <ele>10.231201</ele>
        <time>2014-08-22T09:56:09Z</time>
      </trkpt>
      <trkpt lat="46.19378" lon="-1.3473">
        <ele>8.308594</ele>
        <time>2014-08-22T09:56:19Z</time>
      </trkpt>
      <trkpt lat="46.1937" lon="-1.3474">
        <ele>8.789185</ele>
        <time>2014-08-22T09:56:24Z</time>
      </trkpt>
      <trkpt lat="46.19363" lon="-1.34793">
        <ele>8.789185</ele>
        <time>2014-08-22T09:56:38Z</time>
      </trkpt>
      <trkpt lat="46.19393" lon="-1.34865">
        <ele>9.269897</ele>
        <time>2014-08-22T09:56:54Z</time>
      </trkpt>
      <trkpt lat="46.19393" lon="-1.34978">
        <ele>9.75061</ele>
        <time>2014-08-22T09:57:13Z</time>
      </trkpt>
      <trkpt lat="46.19388" lon="-1.35107">
        <ele>11.192505</ele>
        <time>2014-08-22T09:57:35Z</time>
      </trkpt>
      <trkpt lat="46.19383" lon="-1.35208">
        <ele>12.153809</ele>
        <time>2014-08-22T09:57:52Z</time>
      </trkpt>
      <trkpt lat="46.19384" lon="-1.35271">
        <ele>12.153809</ele>
        <time>2014-08-22T09:58:03Z</time>
      </trkpt>
      <trkpt lat="46.19386" lon="-1.35288">
        <ele>11.192505</ele>
        <time>2014-08-22T09:58:06Z</time>
      </trkpt>
      <trkpt lat="46.1939" lon="-1.35377">
        <ele>14.076416</ele>
        <time>2014-08-22T09:58:22Z</time>
      </trkpt>
      <trkpt lat="46.19397" lon="-1.35486">
        <ele>13.595825</ele>
        <time>2014-08-22T09:58:42Z</time>
      </trkpt>
      <trkpt lat="46.19403" lon="-1.35563">
        <ele>13.595825</ele>
        <time>2014-08-22T09:58:58Z</time>
      </trkpt>
      <trkpt lat="46.19401" lon="-1.35602">
        <ele>12.634399</ele>
        <time>2014-08-22T09:59:10Z</time>
      </trkpt>
      <trkpt lat="46.19403" lon="-1.35611">
        <ele>13.115112</ele>
        <time>2014-08-22T09:59:15Z</time>
      </trkpt>
      <trkpt lat="46.19401" lon="-1.35617">
        <ele>12.634399</ele>
        <time>2014-08-22T09:59:29Z</time>
      </trkpt>
      <trkpt lat="46.19406" lon="-1.35622">
        <ele>12.634399</ele>
        <time>2014-08-22T10:00:10Z</time>
      </trkpt>
      <trkpt lat="46.19411" lon="-1.35662">
        <ele>13.595825</ele>
        <time>2014-08-22T10:00:22Z</time>
      </trkpt>
      <trkpt lat="46.19421" lon="-1.35756">
        <ele>14.076416</ele>
        <time>2014-08-22T10:00:40Z</time>
      </trkpt>
      <trkpt lat="46.19418" lon="-1.3585">
        <ele>12.153809</ele>
        <time>2014-08-22T10:00:56Z</time>
      </trkpt>
      <trkpt lat="46.19418" lon="-1.35978">
        <ele>13.595825</ele>
        <time>2014-08-22T10:01:18Z</time>
      </trkpt>
      <trkpt lat="46.19421" lon="-1.3612">
        <ele>13.595825</ele>
        <time>2014-08-22T10:01:41Z</time>
      </trkpt>
      <trkpt lat="46.1942" lon="-1.3625">
        <ele>12.153809</ele>
        <time>2014-08-22T10:02:02Z</time>
      </trkpt>
      <trkpt lat="46.19406" lon="-1.36382">
        <ele>11.673218</ele>
        <time>2014-08-22T10:02:23Z</time>
      </trkpt>
      <trkpt lat="46.19391" lon="-1.36517">
        <ele>10.711792</ele>
        <time>2014-08-22T10:02:44Z</time>
      </trkpt>
      <trkpt lat="46.1939" lon="-1.36635">
        <ele>10.711792</ele>
        <time>2014-08-22T10:03:03Z</time>
      </trkpt>
      <trkpt lat="46.19386" lon="-1.36763">
        <ele>12.153809</ele>
        <time>2014-08-22T10:03:22Z</time>
      </trkpt>
      <trkpt lat="46.19374" lon="-1.36903">
        <ele>9.75061</ele>
        <time>2014-08-22T10:03:44Z</time>
      </trkpt>
      <trkpt lat="46.19375" lon="-1.36921">
        <ele>10.231201</ele>
        <time>2014-08-22T10:03:48Z</time>
      </trkpt>
      <trkpt lat="46.19365" lon="-1.36941">
        <ele>9.75061</ele>
        <time>2014-08-22T10:03:58Z</time>
      </trkpt>
      <trkpt lat="46.19361" lon="-1.36945">
        <ele>9.269897</ele>
        <time>2014-08-22T10:04:03Z</time>
      </trkpt>
      <trkpt lat="46.1935" lon="-1.36944">
        <ele>9.269897</ele>
        <time>2014-08-22T10:04:08Z</time>
      </trkpt>
      <trkpt lat="46.19291" lon="-1.36893">
        <ele>9.75061</ele>
        <time>2014-08-22T10:04:26Z</time>
      </trkpt>
      <trkpt lat="46.19206" lon="-1.36845">
        <ele>9.75061</ele>
        <time>2014-08-22T10:04:47Z</time>
      </trkpt>
      <trkpt lat="46.19135" lon="-1.36808">
        <ele>9.269897</ele>
        <time>2014-08-22T10:05:07Z</time>
      </trkpt>
      <trkpt lat="46.19133" lon="-1.36808">
        <ele>9.269897</ele>
        <time>2014-08-22T10:05:08Z</time>
      </trkpt>
      <trkpt lat="46.1909" lon="-1.36793">
        <ele>10.231201</ele>
        <time>2014-08-22T10:05:21Z</time>
      </trkpt>
      <trkpt lat="46.18992" lon="-1.36783">
        <ele>9.75061</ele>
        <time>2014-08-22T10:05:42Z</time>
      </trkpt>
      <trkpt lat="46.18968" lon="-1.36782">
        <ele>9.269897</ele>
        <time>2014-08-22T10:05:47Z</time>
      </trkpt>
      <trkpt lat="46.18888" lon="-1.36818">
        <ele>8.789185</ele>
        <time>2014-08-22T10:06:05Z</time>
      </trkpt>
      <trkpt lat="46.1888" lon="-1.36825">
        <ele>8.308594</ele>
        <time>2014-08-22T10:06:07Z</time>
      </trkpt>
      <trkpt lat="46.18829" lon="-1.36901">
        <ele>7.827881</ele>
        <time>2014-08-22T10:06:21Z</time>
      </trkpt>
      <trkpt lat="46.18805" lon="-1.36946">
        <ele>6.866455</ele>
        <time>2014-08-22T10:06:29Z</time>
      </trkpt>
      <trkpt lat="46.18787" lon="-1.36985">
        <ele>6.385864</ele>
        <time>2014-08-22T10:06:37Z</time>
      </trkpt>
      <trkpt lat="46.18715" lon="-1.37076">
        <ele>7.827881</ele>
        <time>2014-08-22T10:06:57Z</time>
      </trkpt>
      <trkpt lat="46.18643" lon="-1.37127">
        <ele>8.308594</ele>
        <time>2014-08-22T10:07:16Z</time>
      </trkpt>
      <trkpt lat="46.186" lon="-1.37141">
        <ele>8.789185</ele>
        <time>2014-08-22T10:07:29Z</time>
      </trkpt>
      <trkpt lat="46.18583" lon="-1.37145">
        <ele>9.269897</ele>
        <time>2014-08-22T10:07:33Z</time>
      </trkpt>
      <trkpt lat="46.18573" lon="-1.37148">
        <ele>8.789185</ele>
        <time>2014-08-22T10:07:35Z</time>
      </trkpt>
      <trkpt lat="46.18504" lon="-1.37165">
        <ele>8.308594</ele>
        <time>2014-08-22T10:07:49Z</time>
      </trkpt>
      <trkpt lat="46.18419" lon="-1.37194">
        <ele>7.827881</ele>
        <time>2014-08-22T10:08:07Z</time>
      </trkpt>
      <trkpt lat="46.18336" lon="-1.37258">
        <ele>7.827881</ele>
        <time>2014-08-22T10:08:26Z</time>
      </trkpt>
      <trkpt lat="46.18327" lon="-1.37265">
        <ele>7.347168</ele>
        <time>2014-08-22T10:08:28Z</time>
      </trkpt>
      <trkpt lat="46.18236" lon="-1.37314">
        <ele>6.385864</ele>
        <time>2014-08-22T10:08:48Z</time>
      </trkpt>
      <trkpt lat="46.18158" lon="-1.37333">
        <ele>4.943848</ele>
        <time>2014-08-22T10:09:05Z</time>
      </trkpt>
      <trkpt lat="46.18131" lon="-1.37335">
        <ele>4.463257</ele>
        <time>2014-08-22T10:09:11Z</time>
      </trkpt>
      <trkpt lat="46.18083" lon="-1.37335">
        <ele>5.424561</ele>
        <time>2014-08-22T10:09:21Z</time>
      </trkpt>
      <trkpt lat="46.18058" lon="-1.37335">
        <ele>5.905273</ele>
        <time>2014-08-22T10:09:26Z</time>
      </trkpt>
      <trkpt lat="46.18012" lon="-1.37349">
        <ele>5.424561</ele>
        <time>2014-08-22T10:09:37Z</time>
      </trkpt>
      <trkpt lat="46.17971" lon="-1.37383">
        <ele>4.463257</ele>
        <time>2014-08-22T10:09:50Z</time>
      </trkpt>
      <trkpt lat="46.17946" lon="-1.37414">
        <ele>4.943848</ele>
        <time>2014-08-22T10:10:03Z</time>
      </trkpt>
      <trkpt lat="46.17936" lon="-1.37404">
        <ele>4.943848</ele>
        <time>2014-08-22T10:10:12Z</time>
      </trkpt>
      <trkpt lat="46.17932" lon="-1.37389">
        <ele>4.463257</ele>
        <time>2014-08-22T10:10:20Z</time>
      </trkpt>
      <trkpt lat="46.17895" lon="-1.3739">
        <ele>4.463257</ele>
        <time>2014-08-22T10:10:32Z</time>
      </trkpt>
      <trkpt lat="46.1788" lon="-1.37385">
        <ele>3.501953</ele>
        <time>2014-08-22T10:10:36Z</time>
      </trkpt>
      <trkpt lat="46.17861" lon="-1.3735">
        <ele>4.943848</ele>
        <time>2014-08-22T10:10:47Z</time>
      </trkpt>
      <trkpt lat="46.1785" lon="-1.37324">
        <ele>4.463257</ele>
        <time>2014-08-22T10:10:52Z</time>
      </trkpt>
      <trkpt lat="46.17849" lon="-1.37274">
        <ele>4.943848</ele>
        <time>2014-08-22T10:11:02Z</time>
      </trkpt>
      <trkpt lat="46.17848" lon="-1.37245">
        <ele>5.424561</ele>
        <time>2014-08-22T10:11:07Z</time>
      </trkpt>
      <trkpt lat="46.17848" lon="-1.37217">
        <ele>5.424561</ele>
        <time>2014-08-22T10:11:11Z</time>
      </trkpt>
      <trkpt lat="46.17841" lon="-1.3718">
        <ele>5.424561</ele>
        <time>2014-08-22T10:11:18Z</time>
      </trkpt>
      <trkpt lat="46.17817" lon="-1.37155">
        <ele>3.982666</ele>
        <time>2014-08-22T10:11:24Z</time>
      </trkpt>
      <trkpt lat="46.17773" lon="-1.37083">
        <ele>3.02124</ele>
        <time>2014-08-22T10:11:36Z</time>
      </trkpt>
      <trkpt lat="46.17734" lon="-1.37053">
        <ele>4.463257</ele>
        <time>2014-08-22T10:11:46Z</time>
      </trkpt>
      <trkpt lat="46.17693" lon="-1.37031">
        <ele>6.385864</ele>
        <time>2014-08-22T10:11:57Z</time>
      </trkpt>
      <trkpt lat="46.17681" lon="-1.37028">
        <ele>5.424561</ele>
        <time>2014-08-22T10:12:00Z</time>
      </trkpt>
      <trkpt lat="46.17664" lon="-1.37022">
        <ele>5.424561</ele>
        <time>2014-08-22T10:12:04Z</time>
      </trkpt>
      <trkpt lat="46.17645" lon="-1.37002">
        <ele>5.905273</ele>
        <time>2014-08-22T10:12:09Z</time>
      </trkpt>
      <trkpt lat="46.17603" lon="-1.36906">
        <ele>7.347168</ele>
        <time>2014-08-22T10:12:27Z</time>
      </trkpt>
      <trkpt lat="46.17592" lon="-1.36887">
        <ele>7.827881</ele>
        <time>2014-08-22T10:12:31Z</time>
      </trkpt>
      <trkpt lat="46.17581" lon="-1.36877">
        <ele>7.827881</ele>
        <time>2014-08-22T10:12:34Z</time>
      </trkpt>
      <trkpt lat="46.17516" lon="-1.36816">
        <ele>8.308594</ele>
        <time>2014-08-22T10:12:52Z</time>
      </trkpt>
      <trkpt lat="46.17449" lon="-1.36767">
        <ele>7.827881</ele>
        <time>2014-08-22T10:13:10Z</time>
      </trkpt>
      <trkpt lat="46.17441" lon="-1.3676">
        <ele>8.308594</ele>
        <time>2014-08-22T10:13:12Z</time>
      </trkpt>
      <trkpt lat="46.17411" lon="-1.36725">
        <ele>7.827881</ele>
        <time>2014-08-22T10:13:21Z</time>
      </trkpt>
      <trkpt lat="46.17401" lon="-1.36713">
        <ele>7.347168</ele>
        <time>2014-08-22T10:13:24Z</time>
      </trkpt>
      <trkpt lat="46.17389" lon="-1.36698">
        <ele>7.347168</ele>
        <time>2014-08-22T10:13:27Z</time>
      </trkpt>
      <trkpt lat="46.17347" lon="-1.36617">
        <ele>7.347168</ele>
        <time>2014-08-22T10:13:41Z</time>
      </trkpt>
      <trkpt lat="46.1734" lon="-1.36606">
        <ele>7.347168</ele>
        <time>2014-08-22T10:13:43Z</time>
      </trkpt>
      <trkpt lat="46.17284" lon="-1.36521">
        <ele>5.424561</ele>
        <time>2014-08-22T10:13:59Z</time>
      </trkpt>
      <trkpt lat="46.17237" lon="-1.3647">
        <ele>3.982666</ele>
        <time>2014-08-22T10:14:10Z</time>
      </trkpt>
      <trkpt lat="46.17156" lon="-1.36387">
        <ele>4.463257</ele>
        <time>2014-08-22T10:14:29Z</time>
      </trkpt>
      <trkpt lat="46.17111" lon="-1.36335">
        <ele>6.385864</ele>
        <time>2014-08-22T10:14:42Z</time>
      </trkpt>
      <trkpt lat="46.17056" lon="-1.36292">
        <ele>6.866455</ele>
        <time>2014-08-22T10:14:57Z</time>
      </trkpt>
      <trkpt lat="46.17018" lon="-1.36268">
        <ele>7.347168</ele>
        <time>2014-08-22T10:15:08Z</time>
      </trkpt>
      <trkpt lat="46.17013" lon="-1.36249">
        <ele>6.866455</ele>
        <time>2014-08-22T10:15:12Z</time>
      </trkpt>
      <trkpt lat="46.17015" lon="-1.36155">
        <ele>6.866455</ele>
        <time>2014-08-22T10:15:31Z</time>
      </trkpt>
      <trkpt lat="46.17016" lon="-1.36079">
        <ele>7.347168</ele>
        <time>2014-08-22T10:15:47Z</time>
      </trkpt>
      <trkpt lat="46.17023" lon="-1.36032">
        <ele>7.347168</ele>
        <time>2014-08-22T10:16:00Z</time>
      </trkpt>
      <trkpt lat="46.17036" lon="-1.35985">
        <ele>8.308594</ele>
        <time>2014-08-22T10:16:14Z</time>
      </trkpt>
      <trkpt lat="46.17057" lon="-1.35968">
        <ele>9.269897</ele>
        <time>2014-08-22T10:16:24Z</time>
      </trkpt>
      <trkpt lat="46.17086" lon="-1.35948">
        <ele>8.789185</ele>
        <time>2014-08-22T10:16:36Z</time>
      </trkpt>
      <trkpt lat="46.1712" lon="-1.35932">
        <ele>9.269897</ele>
        <time>2014-08-22T10:16:48Z</time>
      </trkpt>
      <trkpt lat="46.17146" lon="-1.35901">
        <ele>8.789185</ele>
        <time>2014-08-22T10:16:59Z</time>
      </trkpt>
      <trkpt lat="46.17169" lon="-1.35861">
        <ele>9.269897</ele>
        <time>2014-08-22T10:17:11Z</time>
      </trkpt>
      <trkpt lat="46.17189" lon="-1.35834">
        <ele>9.269897</ele>
        <time>2014-08-22T10:17:22Z</time>
      </trkpt>
      <trkpt lat="46.17206" lon="-1.35811">
        <ele>9.269897</ele>
        <time>2014-08-22T10:17:32Z</time>
      </trkpt>
      <trkpt lat="46.17228" lon="-1.35779">
        <ele>8.789185</ele>
        <time>2014-08-22T10:17:44Z</time>
      </trkpt>
      <trkpt lat="46.17258" lon="-1.35749">
        <ele>9.269897</ele>
        <time>2014-08-22T10:17:59Z</time>
      </trkpt>
      <trkpt lat="46.17266" lon="-1.35733">
        <ele>8.308594</ele>
        <time>2014-08-22T10:18:06Z</time>
      </trkpt>
      <trkpt lat="46.17264" lon="-1.35721">
        <ele>9.269897</ele>
        <time>2014-08-22T10:18:11Z</time>
      </trkpt>
      <trkpt lat="46.17263" lon="-1.35706">
        <ele>8.789185</ele>
        <time>2014-08-22T10:18:16Z</time>
      </trkpt>
      <trkpt lat="46.17258" lon="-1.35691">
        <ele>8.308594</ele>
        <time>2014-08-22T10:18:27Z</time>
      </trkpt>
      <trkpt lat="46.17254" lon="-1.35687">
        <ele>8.789185</ele>
        <time>2014-08-22T10:18:59Z</time>
      </trkpt>
      <trkpt lat="46.17256" lon="-1.35689">
        <ele>4.463257</ele>
        <time>2014-08-22T10:19:13Z</time>
      </trkpt>
      <trkpt lat="46.17254" lon="-1.35688">
        <ele>12.153809</ele>
        <time>2014-08-22T10:19:14Z</time>
      </trkpt>
      <trkpt lat="46.17253" lon="-1.35688">
        <ele>10.231201</ele>
        <time>2014-08-22T10:19:15Z</time>
      </trkpt>
      <trkpt lat="46.17251" lon="-1.35685">
        <ele>8.789185</ele>
        <time>2014-08-22T10:19:18Z</time>
      </trkpt>
      <trkpt lat="46.17252" lon="-1.35684">
        <ele>8.789185</ele>
        <time>2014-08-22T10:19:32Z</time>
      </trkpt>
    </trkseg>
  </trk>
</gpx>